sensor_id;sensor_type;location;lat;lon;timestamp;temperature;humidity
46720;DHT22;32452;51.382;-0.002;2022-11-15T00:01:34;10.80;99.90
46720;DHT22;32452;51.382;-0.002;2022-11-15T00:04:19;10.70;99.90
46720;DHT22;32452;51.382;-0.002;2022-11-15T00:07:06;10.70;99.90
46720;DHT22;32452;51.382;-0.002;2022-11-15T00:09:52;10.70;99.90
46720;DHT22;32452;51.382;-0.002;2022-11-15T00:12:38;10.60;99.90
46720;DHT22;32452;51.382;-0.002;2022-11-15T00:15:23;10.60;99.90
46720;DHT22;32452;51.382;-0.002;2022-11-15T00:18:13;10.60;99.90
46720;DHT22;32452;51.382;-0.002;2022-11-15T00:21:13;10.60;99.90
46720;DHT22;32452;51.382;-0.002;2022-11-15T00:23:59;10.50;99.90
46720;DHT22;32452;51.382;-0.002;2022-11-15T00:26:45;10.50;99.90
46720;DHT22;32452;51.382;-0.002;2022-11-15T00:29:30;10.50;99.90
46720;DHT22;32452;51.382;-0.002;2022-11-15T00:32:16;10.50;99.90
46720;DHT22;32452;51.382;-0.002;2022-11-15T00:35:01;10.40;99.90
46720;DHT22;32452;51.382;-0.002;2022-11-15T00:37:47;10.40;99.90
46720;DHT22;32452;51.382;-0.002;2022-11-15T00:40:33;10.40;99.90
46720;DHT22;32452;51.382;-0.002;2022-11-15T00:43:18;10.40;99.90
46720;DHT22;32452;51.382;-0.002;2022-11-15T00:46:04;10.40;99.90
46720;DHT22;32452;51.382;-0.002;2022-11-15T00:48:52;10.30;99.90
46720;DHT22;32452;51.382;-0.002;2022-11-15T00:52:16;10.30;99.90
46720;DHT22;32452;51.382;-0.002;2022-11-15T00:58:49;10.30;99.90
46720;DHT22;32452;51.382;-0.002;2022-11-15T01:01:48;10.30;99.90
46720;DHT22;32452;51.382;-0.002;2022-11-15T01:04:57;10.30;99.90
46720;DHT22;32452;51.382;-0.002;2022-11-15T01:08:18;10.30;99.90
46720;DHT22;32452;51.382;-0.002;2022-11-15T01:11:21;10.30;99.90
46720;DHT22;32452;51.382;-0.002;2022-11-15T01:14:27;10.30;99.90
46720;DHT22;32452;51.382;-0.002;2022-11-15T01:17:25;10.30;99.90
46720;DHT22;32452;51.382;-0.002;2022-11-15T01:20:44;10.30;99.90
46720;DHT22;32452;51.382;-0.002;2022-11-15T01:24:15;10.30;99.90
46720;DHT22;32452;51.382;-0.002;2022-11-15T01:28:21;10.30;99.90
46720;DHT22;32452;51.382;-0.002;2022-11-15T01:31:15;10.40;99.90
46720;DHT22;32452;51.382;-0.002;2022-11-15T01:34:34;10.40;99.90
46720;DHT22;32452;51.382;-0.002;2022-11-15T01:37:40;10.40;99.90
46720;DHT22;32452;51.382;-0.002;2022-11-15T01:40:32;10.40;99.90
46720;DHT22;32452;51.382;-0.002;2022-11-15T01:43:31;10.40;99.90
46720;DHT22;32452;51.382;-0.002;2022-11-15T01:50:31;10.40;99.90
46720;DHT22;32452;51.382;-0.002;2022-11-15T01:53:43;10.30;99.90
46720;DHT22;32452;51.382;-0.002;2022-11-15T01:56:57;10.30;99.90
46720;DHT22;32452;51.382;-0.002;2022-11-15T01:59:53;10.30;99.90
46720;DHT22;32452;51.382;-0.002;2022-11-15T02:03:02;10.30;99.90
46720;DHT22;32452;51.382;-0.002;2022-11-15T02:10:39;10.20;99.90
46720;DHT22;32452;51.382;-0.002;2022-11-15T02:13:25;10.10;99.90
46720;DHT22;32452;51.382;-0.002;2022-11-15T02:23:28;10.10;99.90
46720;DHT22;32452;51.382;-0.002;2022-11-15T02:29:10;10.10;99.90
46720;DHT22;32452;51.382;-0.002;2022-11-15T02:32:07;10.10;99.90
46720;DHT22;32452;51.382;-0.002;2022-11-15T02:38:12;10.10;99.90
46720;DHT22;32452;51.382;-0.002;2022-11-15T02:41:30;10.10;99.90
46720;DHT22;32452;51.382;-0.002;2022-11-15T02:44:30;10.10;99.90
46720;DHT22;32452;51.382;-0.002;2022-11-15T02:47:17;10.10;99.90
46720;DHT22;32452;51.382;-0.002;2022-11-15T02:50:08;10.00;99.90
46720;DHT22;32452;51.382;-0.002;2022-11-15T02:52:55;10.10;99.90
46720;DHT22;32452;51.382;-0.002;2022-11-15T02:55:47;10.10;99.90
46720;DHT22;32452;51.382;-0.002;2022-11-15T03:05:03;10.10;99.90
46720;DHT22;32452;51.382;-0.002;2022-11-15T03:07:57;10.10;99.90
46720;DHT22;32452;51.382;-0.002;2022-11-15T03:11:13;10.10;99.90
46720;DHT22;32452;51.382;-0.002;2022-11-15T03:14:21;10.20;99.90
46720;DHT22;32452;51.382;-0.002;2022-11-15T03:17:23;10.30;99.90
46720;DHT22;32452;51.382;-0.002;2022-11-15T03:20:25;10.30;99.90
46720;DHT22;32452;51.382;-0.002;2022-11-15T03:23:13;10.30;99.90
46720;DHT22;32452;51.382;-0.002;2022-11-15T03:25:59;10.30;99.90
46720;DHT22;32452;51.382;-0.002;2022-11-15T03:29:11;10.30;99.90
46720;DHT22;32452;51.382;-0.002;2022-11-15T03:32:07;10.40;99.90
46720;DHT22;32452;51.382;-0.002;2022-11-15T03:40:38;10.50;99.90
46720;DHT22;32452;51.382;-0.002;2022-11-15T03:43:41;10.50;99.90
46720;DHT22;32452;51.382;-0.002;2022-11-15T03:46:40;10.50;99.90
46720;DHT22;32452;51.382;-0.002;2022-11-15T03:49:42;10.60;99.90
46720;DHT22;32452;51.382;-0.002;2022-11-15T03:52:36;10.60;99.90
46720;DHT22;32452;51.382;-0.002;2022-11-15T03:55:22;10.60;99.90
46720;DHT22;32452;51.382;-0.002;2022-11-15T03:58:08;10.60;99.90
46720;DHT22;32452;51.382;-0.002;2022-11-15T04:00:53;10.60;99.90
46720;DHT22;32452;51.382;-0.002;2022-11-15T04:03:42;10.60;99.90
46720;DHT22;32452;51.382;-0.002;2022-11-15T04:06:28;10.60;99.90
46720;DHT22;32452;51.382;-0.002;2022-11-15T04:09:13;10.60;99.90
46720;DHT22;32452;51.382;-0.002;2022-11-15T04:12:04;10.60;99.90
46720;DHT22;32452;51.382;-0.002;2022-11-15T04:15:11;10.60;99.90
46720;DHT22;32452;51.382;-0.002;2022-11-15T04:17:57;10.60;99.90
46720;DHT22;32452;51.382;-0.002;2022-11-15T04:20:43;10.70;99.90
46720;DHT22;32452;51.382;-0.002;2022-11-15T04:23:48;10.70;99.90
46720;DHT22;32452;51.382;-0.002;2022-11-15T04:26:52;10.80;99.90
46720;DHT22;32452;51.382;-0.002;2022-11-15T04:29:37;10.80;99.90
46720;DHT22;32452;51.382;-0.002;2022-11-15T04:32:23;10.90;99.90
46720;DHT22;32452;51.382;-0.002;2022-11-15T04:35:11;10.90;99.90
46720;DHT22;32452;51.382;-0.002;2022-11-15T04:41:15;11.00;99.90
46720;DHT22;32452;51.382;-0.002;2022-11-15T04:44:01;11.10;99.90
46720;DHT22;32452;51.382;-0.002;2022-11-15T04:46:47;11.10;99.90
46720;DHT22;32452;51.382;-0.002;2022-11-15T04:49:32;11.20;99.90
46720;DHT22;32452;51.382;-0.002;2022-11-15T04:52:18;11.20;99.90
46720;DHT22;32452;51.382;-0.002;2022-11-15T04:55:12;11.30;99.90
46720;DHT22;32452;51.382;-0.002;2022-11-15T04:58:00;11.30;99.90
46720;DHT22;32452;51.382;-0.002;2022-11-15T05:00:45;11.30;99.90
46720;DHT22;32452;51.382;-0.002;2022-11-15T05:03:31;11.40;99.90
46720;DHT22;32452;51.382;-0.002;2022-11-15T05:06:34;11.40;99.90
46720;DHT22;32452;51.382;-0.002;2022-11-15T05:09:20;11.50;99.90
46720;DHT22;32452;51.382;-0.002;2022-11-15T05:12:06;11.50;99.90
46720;DHT22;32452;51.382;-0.002;2022-11-15T05:14:51;11.50;99.90
46720;DHT22;32452;51.382;-0.002;2022-11-15T05:17:38;11.60;99.90
46720;DHT22;32452;51.382;-0.002;2022-11-15T05:20:23;11.60;99.90
46720;DHT22;32452;51.382;-0.002;2022-11-15T05:23:09;11.60;99.90
46720;DHT22;32452;51.382;-0.002;2022-11-15T05:25:59;11.70;99.90
46720;DHT22;32452;51.382;-0.002;2022-11-15T05:28:54;11.70;99.90
46720;DHT22;32452;51.382;-0.002;2022-11-15T05:31:40;11.70;99.90
46720;DHT22;32452;51.382;-0.002;2022-11-15T05:34:27;11.80;99.90
46720;DHT22;32452;51.382;-0.002;2022-11-15T05:37:13;11.80;99.90
46720;DHT22;32452;51.382;-0.002;2022-11-15T05:39:59;11.80;99.90
46720;DHT22;32452;51.382;-0.002;2022-11-15T05:42:45;11.80;99.90
46720;DHT22;32452;51.382;-0.002;2022-11-15T05:45:32;11.90;99.90
46720;DHT22;32452;51.382;-0.002;2022-11-15T05:48:19;11.90;99.90
46720;DHT22;32452;51.382;-0.002;2022-11-15T05:51:05;11.90;99.90
46720;DHT22;32452;51.382;-0.002;2022-11-15T05:53:53;11.90;99.90
46720;DHT22;32452;51.382;-0.002;2022-11-15T05:56:40;11.90;99.90
46720;DHT22;32452;51.382;-0.002;2022-11-15T05:59:27;11.90;99.90
46720;DHT22;32452;51.382;-0.002;2022-11-15T06:02:13;11.90;99.90
46720;DHT22;32452;51.382;-0.002;2022-11-15T06:04:58;12.00;99.90
46720;DHT22;32452;51.382;-0.002;2022-11-15T06:07:44;12.00;99.90
46720;DHT22;32452;51.382;-0.002;2022-11-15T06:10:29;12.00;99.90
46720;DHT22;32452;51.382;-0.002;2022-11-15T06:13:15;12.00;99.90
46720;DHT22;32452;51.382;-0.002;2022-11-15T06:16:01;12.00;99.90
46720;DHT22;32452;51.382;-0.002;2022-11-15T06:18:46;12.00;99.90
46720;DHT22;32452;51.382;-0.002;2022-11-15T06:21:31;12.00;99.90
46720;DHT22;32452;51.382;-0.002;2022-11-15T06:24:17;12.00;99.90
46720;DHT22;32452;51.382;-0.002;2022-11-15T06:27:02;12.00;99.90
46720;DHT22;32452;51.382;-0.002;2022-11-15T06:29:48;12.00;99.90
46720;DHT22;32452;51.382;-0.002;2022-11-15T06:32:33;12.10;99.90
46720;DHT22;32452;51.382;-0.002;2022-11-15T06:35:19;12.10;99.90
46720;DHT22;32452;51.382;-0.002;2022-11-15T06:38:06;12.10;99.90
46720;DHT22;32452;51.382;-0.002;2022-11-15T06:40:52;12.10;99.90
46720;DHT22;32452;51.382;-0.002;2022-11-15T06:43:39;12.00;99.90
46720;DHT22;32452;51.382;-0.002;2022-11-15T06:46:25;12.00;99.90
46720;DHT22;32452;51.382;-0.002;2022-11-15T06:49:10;12.00;99.90
46720;DHT22;32452;51.382;-0.002;2022-11-15T06:51:56;11.90;99.90
46720;DHT22;32452;51.382;-0.002;2022-11-15T06:54:41;11.90;99.90
46720;DHT22;32452;51.382;-0.002;2022-11-15T06:57:27;11.90;99.90
46720;DHT22;32452;51.382;-0.002;2022-11-15T07:00:12;11.80;99.90
46720;DHT22;32452;51.382;-0.002;2022-11-15T07:03:02;11.80;99.90
46720;DHT22;32452;51.382;-0.002;2022-11-15T07:05:55;11.70;99.90
46720;DHT22;32452;51.382;-0.002;2022-11-15T07:08:47;11.70;99.90
46720;DHT22;32452;51.382;-0.002;2022-11-15T07:11:33;11.70;99.90
46720;DHT22;32452;51.382;-0.002;2022-11-15T07:14:19;11.70;99.90
46720;DHT22;32452;51.382;-0.002;2022-11-15T07:17:05;11.70;99.90
46720;DHT22;32452;51.382;-0.002;2022-11-15T07:19:50;11.70;99.90
46720;DHT22;32452;51.382;-0.002;2022-11-15T07:22:36;11.60;99.90
46720;DHT22;32452;51.382;-0.002;2022-11-15T07:25:21;11.70;99.90
46720;DHT22;32452;51.382;-0.002;2022-11-15T07:28:07;11.70;99.90
46720;DHT22;32452;51.382;-0.002;2022-11-15T07:30:53;11.70;99.90
46720;DHT22;32452;51.382;-0.002;2022-11-15T07:33:38;11.60;99.90
46720;DHT22;32452;51.382;-0.002;2022-11-15T07:36:23;11.60;99.90
46720;DHT22;32452;51.382;-0.002;2022-11-15T07:39:09;11.60;99.90
46720;DHT22;32452;51.382;-0.002;2022-11-15T07:41:55;11.50;99.90
46720;DHT22;32452;51.382;-0.002;2022-11-15T07:45:00;11.50;99.90
46720;DHT22;32452;51.382;-0.002;2022-11-15T07:47:47;11.50;99.90
46720;DHT22;32452;51.382;-0.002;2022-11-15T07:50:32;11.40;99.90
46720;DHT22;32452;51.382;-0.002;2022-11-15T07:53:18;11.40;99.90
46720;DHT22;32452;51.382;-0.002;2022-11-15T07:56:06;11.40;99.90
46720;DHT22;32452;51.382;-0.002;2022-11-15T07:58:52;11.40;99.90
46720;DHT22;32452;51.382;-0.002;2022-11-15T08:01:37;11.40;99.90
46720;DHT22;32452;51.382;-0.002;2022-11-15T08:04:23;11.30;99.90
46720;DHT22;32452;51.382;-0.002;2022-11-15T08:07:09;11.30;99.90
46720;DHT22;32452;51.382;-0.002;2022-11-15T08:09:54;11.30;99.90
46720;DHT22;32452;51.382;-0.002;2022-11-15T08:12:40;11.30;99.90
46720;DHT22;32452;51.382;-0.002;2022-11-15T08:15:26;11.30;99.90
46720;DHT22;32452;51.382;-0.002;2022-11-15T08:18:16;11.30;99.90
46720;DHT22;32452;51.382;-0.002;2022-11-15T08:21:01;11.30;99.90
46720;DHT22;32452;51.382;-0.002;2022-11-15T08:23:47;11.30;99.90
46720;DHT22;32452;51.382;-0.002;2022-11-15T08:26:32;11.30;99.90
46720;DHT22;32452;51.382;-0.002;2022-11-15T08:29:18;11.40;99.90
46720;DHT22;32452;51.382;-0.002;2022-11-15T08:32:04;11.30;99.90
46720;DHT22;32452;51.382;-0.002;2022-11-15T08:34:49;11.40;99.90
46720;DHT22;32452;51.382;-0.002;2022-11-15T08:37:35;11.40;99.90
46720;DHT22;32452;51.382;-0.002;2022-11-15T08:40:21;11.40;99.90
46720;DHT22;32452;51.382;-0.002;2022-11-15T08:43:08;11.40;99.90
46720;DHT22;32452;51.382;-0.002;2022-11-15T08:45:56;11.40;99.90
46720;DHT22;32452;51.382;-0.002;2022-11-15T08:48:42;11.40;99.90
46720;DHT22;32452;51.382;-0.002;2022-11-15T08:51:27;11.40;99.90
46720;DHT22;32452;51.382;-0.002;2022-11-15T08:54:13;11.50;99.90
46720;DHT22;32452;51.382;-0.002;2022-11-15T08:56:58;11.40;99.90
46720;DHT22;32452;51.382;-0.002;2022-11-15T08:59:44;11.50;99.90
46720;DHT22;32452;51.382;-0.002;2022-11-15T09:02:29;11.50;99.90
46720;DHT22;32452;51.382;-0.002;2022-11-15T09:05:15;11.50;99.90
46720;DHT22;32452;51.382;-0.002;2022-11-15T09:08:01;11.50;99.90
46720;DHT22;32452;51.382;-0.002;2022-11-15T09:11:08;11.50;99.90
46720;DHT22;32452;51.382;-0.002;2022-11-15T09:13:54;11.60;99.90
46720;DHT22;32452;51.382;-0.002;2022-11-15T09:16:40;11.60;99.90
46720;DHT22;32452;51.382;-0.002;2022-11-15T09:19:25;11.60;99.90
46720;DHT22;32452;51.382;-0.002;2022-11-15T09:22:11;11.60;99.90
46720;DHT22;32452;51.382;-0.002;2022-11-15T09:24:56;11.60;99.90
46720;DHT22;32452;51.382;-0.002;2022-11-15T09:27:43;11.60;99.90
46720;DHT22;32452;51.382;-0.002;2022-11-15T09:30:29;11.70;99.90
46720;DHT22;32452;51.382;-0.002;2022-11-15T09:33:15;11.70;99.90
46720;DHT22;32452;51.382;-0.002;2022-11-15T09:36:02;11.70;99.90
46720;DHT22;32452;51.382;-0.002;2022-11-15T09:38:48;11.70;99.90
46720;DHT22;32452;51.382;-0.002;2022-11-15T09:50:47;11.70;99.90
46720;DHT22;32452;51.382;-0.002;2022-11-15T09:54:11;11.80;99.90
46720;DHT22;32452;51.382;-0.002;2022-11-15T10:03:34;11.80;99.90
46720;DHT22;32452;51.382;-0.002;2022-11-15T10:06:26;11.80;99.90
46720;DHT22;32452;51.382;-0.002;2022-11-15T10:09:26;11.90;99.90
46720;DHT22;32452;51.382;-0.002;2022-11-15T10:12:15;11.90;99.90
46720;DHT22;32452;51.382;-0.002;2022-11-15T10:15:09;11.90;99.90
46720;DHT22;32452;51.382;-0.002;2022-11-15T10:20:49;11.90;99.90
46720;DHT22;32452;51.382;-0.002;2022-11-15T10:23:35;12.00;99.90
46720;DHT22;32452;51.382;-0.002;2022-11-15T10:26:21;12.00;99.90
46720;DHT22;32452;51.382;-0.002;2022-11-15T10:29:08;12.00;99.90
46720;DHT22;32452;51.382;-0.002;2022-11-15T10:31:54;12.00;99.90
46720;DHT22;32452;51.382;-0.002;2022-11-15T10:34:40;12.00;99.90
46720;DHT22;32452;51.382;-0.002;2022-11-15T10:37:31;12.10;99.90
46720;DHT22;32452;51.382;-0.002;2022-11-15T10:40:23;12.00;99.90
46720;DHT22;32452;51.382;-0.002;2022-11-15T10:45:54;12.10;99.90
46720;DHT22;32452;51.382;-0.002;2022-11-15T10:48:40;12.10;99.90
46720;DHT22;32452;51.382;-0.002;2022-11-15T10:51:27;12.10;99.90
46720;DHT22;32452;51.382;-0.002;2022-11-15T10:54:22;12.10;99.90
46720;DHT22;32452;51.382;-0.002;2022-11-15T10:57:13;12.10;99.90
46720;DHT22;32452;51.382;-0.002;2022-11-15T11:05:41;12.20;99.90
46720;DHT22;32452;51.382;-0.002;2022-11-15T11:08:27;12.20;99.90
46720;DHT22;32452;51.382;-0.002;2022-11-15T11:11:13;12.10;99.90
46720;DHT22;32452;51.382;-0.002;2022-11-15T11:14:12;12.20;99.90
46720;DHT22;32452;51.382;-0.002;2022-11-15T11:26:42;12.20;99.90
46720;DHT22;32452;51.382;-0.002;2022-11-15T11:35:24;12.10;99.90
46720;DHT22;32452;51.382;-0.002;2022-11-15T11:46:59;12.20;99.90
46720;DHT22;32452;51.382;-0.002;2022-11-15T11:49:56;12.20;99.90
46720;DHT22;32452;51.382;-0.002;2022-11-15T11:53:04;12.20;99.90
46720;DHT22;32452;51.382;-0.002;2022-11-15T11:55:57;12.20;99.90
46720;DHT22;32452;51.382;-0.002;2022-11-15T11:58:46;12.20;99.90
46720;DHT22;32452;51.382;-0.002;2022-11-15T12:01:41;12.20;99.90
46720;DHT22;32452;51.382;-0.002;2022-11-15T12:04:30;12.20;99.90
46720;DHT22;32452;51.382;-0.002;2022-11-15T12:07:27;12.20;99.90
46720;DHT22;32452;51.382;-0.002;2022-11-15T12:10:28;12.20;99.90
46720;DHT22;32452;51.382;-0.002;2022-11-15T12:13:21;12.30;99.90
46720;DHT22;32452;51.382;-0.002;2022-11-15T12:16:25;12.30;99.90
46720;DHT22;32452;51.382;-0.002;2022-11-15T12:19:11;12.30;99.90
46720;DHT22;32452;51.382;-0.002;2022-11-15T12:22:04;12.30;99.90
46720;DHT22;32452;51.382;-0.002;2022-11-15T12:27:55;12.30;99.90
46720;DHT22;32452;51.382;-0.002;2022-11-15T12:30:54;12.40;99.90
46720;DHT22;32452;51.382;-0.002;2022-11-15T12:33:44;12.40;99.90
46720;DHT22;32452;51.382;-0.002;2022-11-15T12:36:45;12.40;99.90
46720;DHT22;32452;51.382;-0.002;2022-11-15T12:42:59;12.40;99.90
46720;DHT22;32452;51.382;-0.002;2022-11-15T12:45:45;12.40;99.90
46720;DHT22;32452;51.382;-0.002;2022-11-15T12:52:03;12.50;99.90
46720;DHT22;32452;51.382;-0.002;2022-11-15T13:02:47;12.60;99.90
46720;DHT22;32452;51.382;-0.002;2022-11-15T13:08:40;12.60;99.90
46720;DHT22;32452;51.382;-0.002;2022-11-15T13:11:43;12.60;99.90
46720;DHT22;32452;51.382;-0.002;2022-11-15T13:17:32;12.70;99.90
46720;DHT22;32452;51.382;-0.002;2022-11-15T13:20:20;12.60;99.90
46720;DHT22;32452;51.382;-0.002;2022-11-15T13:23:07;12.70;99.90
46720;DHT22;32452;51.382;-0.002;2022-11-15T13:26:12;12.90;99.90
46720;DHT22;32452;51.382;-0.002;2022-11-15T13:28:59;13.00;99.90
46720;DHT22;32452;51.382;-0.002;2022-11-15T13:31:47;13.20;99.90
46720;DHT22;32452;51.382;-0.002;2022-11-15T13:34:33;13.40;99.90
46720;DHT22;32452;51.382;-0.002;2022-11-15T13:37:36;13.80;99.90
46720;DHT22;32452;51.382;-0.002;2022-11-15T13:40:28;14.50;99.90
46720;DHT22;32452;51.382;-0.002;2022-11-15T13:49:08;15.70;99.90
46720;DHT22;32452;51.382;-0.002;2022-11-15T13:51:56;16.00;99.90
46720;DHT22;32452;51.382;-0.002;2022-11-15T13:57:57;16.20;99.90
46720;DHT22;32452;51.382;-0.002;2022-11-15T14:00:45;16.00;99.90
46720;DHT22;32452;51.382;-0.002;2022-11-15T14:03:33;15.90;99.90
46720;DHT22;32452;51.382;-0.002;2022-11-15T14:06:22;15.90;99.90
46720;DHT22;32452;51.382;-0.002;2022-11-15T14:09:28;16.00;99.90
46720;DHT22;32452;51.382;-0.002;2022-11-15T14:12:34;16.10;99.90
46720;DHT22;32452;51.382;-0.002;2022-11-15T14:15:39;16.30;99.90
46720;DHT22;32452;51.382;-0.002;2022-11-15T14:18:45;16.40;99.90
46720;DHT22;32452;51.382;-0.002;2022-11-15T14:21:31;16.50;99.90
46720;DHT22;32452;51.382;-0.002;2022-11-15T14:24:19;16.40;99.90
46720;DHT22;32452;51.382;-0.002;2022-11-15T14:27:26;16.40;99.90
46720;DHT22;32452;51.382;-0.002;2022-11-15T14:30:16;16.40;99.90
46720;DHT22;32452;51.382;-0.002;2022-11-15T14:33:29;16.30;99.40
46720;DHT22;32452;51.382;-0.002;2022-11-15T14:36:18;16.20;98.80
46720;DHT22;32452;51.382;-0.002;2022-11-15T14:39:04;16.10;98.40
46720;DHT22;32452;51.382;-0.002;2022-11-15T14:41:50;15.90;98.70
46720;DHT22;32452;51.382;-0.002;2022-11-15T14:44:36;15.80;98.60
46720;DHT22;32452;51.382;-0.002;2022-11-15T14:47:26;15.70;98.60
46720;DHT22;32452;51.382;-0.002;2022-11-15T14:50:17;15.60;98.70
46720;DHT22;32452;51.382;-0.002;2022-11-15T14:53:03;15.40;98.50
46720;DHT22;32452;51.382;-0.002;2022-11-15T14:55:49;15.20;98.50
46720;DHT22;32452;51.382;-0.002;2022-11-15T14:58:35;15.00;98.60
46720;DHT22;32452;51.382;-0.002;2022-11-15T15:01:23;14.80;98.90
46720;DHT22;32452;51.382;-0.002;2022-11-15T15:04:10;14.60;99.40
46720;DHT22;32452;51.382;-0.002;2022-11-15T15:06:56;14.50;99.60
46720;DHT22;32452;51.382;-0.002;2022-11-15T15:09:42;14.30;99.90
46720;DHT22;32452;51.382;-0.002;2022-11-15T15:12:27;14.20;99.90
46720;DHT22;32452;51.382;-0.002;2022-11-15T15:15:22;14.10;99.90
46720;DHT22;32452;51.382;-0.002;2022-11-15T15:18:09;14.00;99.90
46720;DHT22;32452;51.382;-0.002;2022-11-15T15:20:58;13.90;99.90
46720;DHT22;32452;51.382;-0.002;2022-11-15T15:23:53;13.80;99.90
46720;DHT22;32452;51.382;-0.002;2022-11-15T15:26:42;13.70;99.90
46720;DHT22;32452;51.382;-0.002;2022-11-15T15:29:28;13.60;99.90
46720;DHT22;32452;51.382;-0.002;2022-11-15T15:32:14;13.50;99.90
46720;DHT22;32452;51.382;-0.002;2022-11-15T15:34:59;13.40;99.90
46720;DHT22;32452;51.382;-0.002;2022-11-15T15:37:46;13.30;99.90
46720;DHT22;32452;51.382;-0.002;2022-11-15T15:40:33;13.20;99.90
46720;DHT22;32452;51.382;-0.002;2022-11-15T15:43:19;13.10;99.90
46720;DHT22;32452;51.382;-0.002;2022-11-15T15:46:07;13.00;99.90
46720;DHT22;32452;51.382;-0.002;2022-11-15T15:48:54;13.00;99.90
46720;DHT22;32452;51.382;-0.002;2022-11-15T15:51:39;12.90;99.90
46720;DHT22;32452;51.382;-0.002;2022-11-15T15:54:25;12.80;99.90
46720;DHT22;32452;51.382;-0.002;2022-11-15T15:57:12;12.80;99.90
46720;DHT22;32452;51.382;-0.002;2022-11-15T15:59:59;12.70;99.90
46720;DHT22;32452;51.382;-0.002;2022-11-15T16:02:45;12.70;99.90
46720;DHT22;32452;51.382;-0.002;2022-11-15T16:05:31;12.60;99.90
46720;DHT22;32452;51.382;-0.002;2022-11-15T16:08:22;12.60;99.90
46720;DHT22;32452;51.382;-0.002;2022-11-15T16:11:08;12.60;99.90
46720;DHT22;32452;51.382;-0.002;2022-11-15T16:13:55;12.60;99.90
46720;DHT22;32452;51.382;-0.002;2022-11-15T16:16:40;12.50;99.90
46720;DHT22;32452;51.382;-0.002;2022-11-15T16:19:26;12.50;99.90
46720;DHT22;32452;51.382;-0.002;2022-11-15T16:22:12;12.50;99.90
46720;DHT22;32452;51.382;-0.002;2022-11-15T16:24:57;12.50;99.90
46720;DHT22;32452;51.382;-0.002;2022-11-15T16:27:43;12.60;99.90
46720;DHT22;32452;51.382;-0.002;2022-11-15T16:30:30;12.60;99.90
46720;DHT22;32452;51.382;-0.002;2022-11-15T16:33:15;12.60;99.90
46720;DHT22;32452;51.382;-0.002;2022-11-15T16:36:05;12.60;99.90
46720;DHT22;32452;51.382;-0.002;2022-11-15T16:38:51;12.60;99.90
46720;DHT22;32452;51.382;-0.002;2022-11-15T16:41:37;12.50;99.90
46720;DHT22;32452;51.382;-0.002;2022-11-15T16:44:22;12.50;99.90
46720;DHT22;32452;51.382;-0.002;2022-11-15T16:47:17;12.50;99.90
46720;DHT22;32452;51.382;-0.002;2022-11-15T16:50:20;12.40;99.90
46720;DHT22;32452;51.382;-0.002;2022-11-15T16:53:08;12.40;99.90
46720;DHT22;32452;51.382;-0.002;2022-11-15T16:55:54;12.30;99.90
46720;DHT22;32452;51.382;-0.002;2022-11-15T16:58:40;12.30;99.90
46720;DHT22;32452;51.382;-0.002;2022-11-15T17:01:29;12.30;99.90
46720;DHT22;32452;51.382;-0.002;2022-11-15T17:04:19;12.20;99.90
46720;DHT22;32452;51.382;-0.002;2022-11-15T17:07:07;12.20;99.90
46720;DHT22;32452;51.382;-0.002;2022-11-15T17:09:54;12.20;99.90
46720;DHT22;32452;51.382;-0.002;2022-11-15T17:12:39;12.10;99.90
46720;DHT22;32452;51.382;-0.002;2022-11-15T17:15:25;12.00;99.90
46720;DHT22;32452;51.382;-0.002;2022-11-15T17:18:11;12.00;99.90
46720;DHT22;32452;51.382;-0.002;2022-11-15T17:21:15;11.90;99.90
46720;DHT22;32452;51.382;-0.002;2022-11-15T17:24:01;11.90;99.90
46720;DHT22;32452;51.382;-0.002;2022-11-15T17:26:47;11.90;99.90
46720;DHT22;32452;51.382;-0.002;2022-11-15T17:29:32;11.80;99.90
46720;DHT22;32452;51.382;-0.002;2022-11-15T17:32:20;11.90;99.90
46720;DHT22;32452;51.382;-0.002;2022-11-15T17:35:06;11.90;99.90
46720;DHT22;32452;51.382;-0.002;2022-11-15T17:38:02;11.90;99.90
46720;DHT22;32452;51.382;-0.002;2022-11-15T17:40:48;11.90;99.90
46720;DHT22;32452;51.382;-0.002;2022-11-15T17:43:43;11.90;99.90
46720;DHT22;32452;51.382;-0.002;2022-11-15T17:46:29;11.90;99.90
46720;DHT22;32452;51.382;-0.002;2022-11-15T17:49:15;11.80;99.90
46720;DHT22;32452;51.382;-0.002;2022-11-15T17:52:00;11.80;99.90
46720;DHT22;32452;51.382;-0.002;2022-11-15T17:54:46;11.80;99.90
46720;DHT22;32452;51.382;-0.002;2022-11-15T17:57:32;11.80;99.90
46720;DHT22;32452;51.382;-0.002;2022-11-15T18:00:17;11.80;99.90
46720;DHT22;32452;51.382;-0.002;2022-11-15T18:03:04;11.80;99.90
46720;DHT22;32452;51.382;-0.002;2022-11-15T18:05:50;11.80;99.90
46720;DHT22;32452;51.382;-0.002;2022-11-15T18:08:37;11.80;99.90
46720;DHT22;32452;51.382;-0.002;2022-11-15T18:11:25;11.70;99.90
46720;DHT22;32452;51.382;-0.002;2022-11-15T18:14:14;11.70;99.90
46720;DHT22;32452;51.382;-0.002;2022-11-15T18:16:59;11.70;99.90
46720;DHT22;32452;51.382;-0.002;2022-11-15T18:19:45;11.70;99.90
46720;DHT22;32452;51.382;-0.002;2022-11-15T18:22:31;11.60;99.90
46720;DHT22;32452;51.382;-0.002;2022-11-15T18:25:17;11.60;99.90
46720;DHT22;32452;51.382;-0.002;2022-11-15T18:28:03;11.60;99.90
46720;DHT22;32452;51.382;-0.002;2022-11-15T18:30:49;11.50;99.90
46720;DHT22;32452;51.382;-0.002;2022-11-15T18:33:34;11.50;99.90
46720;DHT22;32452;51.382;-0.002;2022-11-15T18:36:22;11.40;99.90
46720;DHT22;32452;51.382;-0.002;2022-11-15T18:39:09;11.40;99.90
46720;DHT22;32452;51.382;-0.002;2022-11-15T18:42:00;11.30;99.90
46720;DHT22;32452;51.382;-0.002;2022-11-15T18:44:45;11.20;99.90
46720;DHT22;32452;51.382;-0.002;2022-11-15T18:47:31;11.10;99.90
46720;DHT22;32452;51.382;-0.002;2022-11-15T18:50:16;11.10;99.90
46720;DHT22;32452;51.382;-0.002;2022-11-15T18:53:02;11.00;99.90
46720;DHT22;32452;51.382;-0.002;2022-11-15T18:55:47;11.00;99.90
46720;DHT22;32452;51.382;-0.002;2022-11-15T18:58:35;10.90;99.90
46720;DHT22;32452;51.382;-0.002;2022-11-15T19:01:32;10.90;99.90
46720;DHT22;32452;51.382;-0.002;2022-11-15T19:04:19;10.90;99.90
46720;DHT22;32452;51.382;-0.002;2022-11-15T19:07:05;10.90;99.90
46720;DHT22;32452;51.382;-0.002;2022-11-15T19:09:51;10.90;99.90
46720;DHT22;32452;51.382;-0.002;2022-11-15T19:12:37;10.80;99.90
46720;DHT22;32452;51.382;-0.002;2022-11-15T19:15:22;10.80;99.90
46720;DHT22;32452;51.382;-0.002;2022-11-15T19:18:08;10.70;99.90
46720;DHT22;32452;51.382;-0.002;2022-11-15T19:20:53;10.70;99.90
46720;DHT22;32452;51.382;-0.002;2022-11-15T19:23:41;10.60;99.90
46720;DHT22;32452;51.382;-0.002;2022-11-15T19:26:27;10.60;99.90
46720;DHT22;32452;51.382;-0.002;2022-11-15T19:29:13;10.50;99.90
46720;DHT22;32452;51.382;-0.002;2022-11-15T19:31:59;10.50;99.90
46720;DHT22;32452;51.382;-0.002;2022-11-15T19:34:44;10.50;99.90
46720;DHT22;32452;51.382;-0.002;2022-11-15T19:37:30;10.50;99.90
46720;DHT22;32452;51.382;-0.002;2022-11-15T19:40:15;10.50;99.90
46720;DHT22;32452;51.382;-0.002;2022-11-15T19:43:02;10.50;99.90